sensor_id;sensor_type;location;lat;lon;timestamp;P1;durP1;ratioP1;P2;durP2;ratioP2
36815;SDS011;71982;52.294;6.760;2023-12-14T00:00:29;33.67;;;19.98;;
36815;SDS011;71982;52.294;6.760;2023-12-14T00:02:58;29.05;;;18.60;;
36815;SDS011;71982;52.294;6.760;2023-12-14T00:05:30;28.83;;;19.38;;
36815;SDS011;71982;52.294;6.760;2023-12-14T00:07:57;35.88;;;20.77;;
36815;SDS011;71982;52.294;6.760;2023-12-14T00:10:29;32.33;;;20.40;;
36815;SDS011;71982;52.294;6.760;2023-12-14T00:12:56;33.15;;;20.88;;
36815;SDS011;71982;52.294;6.760;2023-12-14T00:15:32;33.90;;;20.52;;
36815;SDS011;71982;52.294;6.760;2023-12-14T00:17:59;34.10;;;20.65;;
36815;SDS011;71982;52.294;6.760;2023-12-14T00:20:26;35.30;;;21.80;;
36815;SDS011;71982;52.294;6.760;2023-12-14T00:23:03;33.70;;;20.13;;
36815;SDS011;71982;52.294;6.760;2023-12-14T00:25:37;31.13;;;19.02;;
36815;SDS011;71982;52.294;6.760;2023-12-14T00:28:28;32.58;;;21.17;;
36815;SDS011;71982;52.294;6.760;2023-12-14T00:30:55;32.67;;;20.73;;
36815;SDS011;71982;52.294;6.760;2023-12-14T00:33:36;31.05;;;19.92;;
36815;SDS011;71982;52.294;6.760;2023-12-14T00:36:17;29.40;;;19.17;;
36815;SDS011;71982;52.294;6.760;2023-12-14T00:38:45;30.25;;;19.60;;
36815;SDS011;71982;52.294;6.760;2023-12-14T00:43:58;29.85;;;18.88;;
36815;SDS011;71982;52.294;6.760;2023-12-14T00:46:24;32.83;;;20.20;;
36815;SDS011;71982;52.294;6.760;2023-12-14T00:48:51;30.00;;;19.13;;
36815;SDS011;71982;52.294;6.760;2023-12-14T00:51:18;36.50;;;21.25;;
36815;SDS011;71982;52.294;6.760;2023-12-14T00:53:49;36.83;;;21.17;;
36815;SDS011;71982;52.294;6.760;2023-12-14T00:56:16;36.35;;;21.30;;
36815;SDS011;71982;52.294;6.760;2023-12-14T00:58:46;35.70;;;21.20;;
36815;SDS011;71982;52.294;6.760;2023-12-14T01:01:13;36.83;;;20.80;;
36815;SDS011;71982;52.294;6.760;2023-12-14T01:03:40;35.38;;;21.70;;
36815;SDS011;71982;52.294;6.760;2023-12-14T01:06:07;39.08;;;21.48;;
36815;SDS011;71982;52.294;6.760;2023-12-14T01:08:34;32.58;;;20.50;;
36815;SDS011;71982;52.294;6.760;2023-12-14T01:11:05;32.33;;;21.00;;
36815;SDS011;71982;52.294;6.760;2023-12-14T01:13:39;34.40;;;21.33;;
36815;SDS011;71982;52.294;6.760;2023-12-14T01:16:07;34.33;;;20.02;;
36815;SDS011;71982;52.294;6.760;2023-12-14T01:18:35;32.92;;;20.77;;
36815;SDS011;71982;52.294;6.760;2023-12-14T01:21:10;31.23;;;19.40;;
36815;SDS011;71982;52.294;6.760;2023-12-14T01:23:38;29.17;;;19.48;;
36815;SDS011;71982;52.294;6.760;2023-12-14T01:26:06;30.60;;;19.10;;
36815;SDS011;71982;52.294;6.760;2023-12-14T01:28:39;28.98;;;19.17;;
36815;SDS011;71982;52.294;6.760;2023-12-14T01:31:25;31.17;;;18.60;;
36815;SDS011;71982;52.294;6.760;2023-12-14T01:33:55;27.95;;;18.40;;
36815;SDS011;71982;52.294;6.760;2023-12-14T01:36:29;31.88;;;19.83;;
36815;SDS011;71982;52.294;6.760;2023-12-14T01:38:58;27.67;;;18.20;;
36815;SDS011;71982;52.294;6.760;2023-12-14T01:41:42;27.23;;;17.05;;
36815;SDS011;71982;52.294;6.760;2023-12-14T01:44:09;25.52;;;16.27;;
36815;SDS011;71982;52.294;6.760;2023-12-14T01:46:36;25.70;;;15.80;;
36815;SDS011;71982;52.294;6.760;2023-12-14T01:49:08;23.42;;;16.23;;
36815;SDS011;71982;52.294;6.760;2023-12-14T01:51:41;26.70;;;16.15;;
36815;SDS011;71982;52.294;6.760;2023-12-14T01:54:20;23.67;;;16.25;;
36815;SDS011;71982;52.294;6.760;2023-12-14T01:59:56;25.38;;;16.35;;
36815;SDS011;71982;52.294;6.760;2023-12-14T02:02:28;28.65;;;18.48;;
36815;SDS011;71982;52.294;6.760;2023-12-14T02:04:55;27.65;;;17.73;;
36815;SDS011;71982;52.294;6.760;2023-12-14T02:07:23;27.75;;;17.48;;
36815;SDS011;71982;52.294;6.760;2023-12-14T02:09:59;34.30;;;18.33;;
36815;SDS011;71982;52.294;6.760;2023-12-14T02:12:30;27.42;;;17.63;;
36815;SDS011;71982;52.294;6.760;2023-12-14T02:15:00;32.50;;;19.10;;
36815;SDS011;71982;52.294;6.760;2023-12-14T02:17:42;30.00;;;19.42;;
36815;SDS011;71982;52.294;6.760;2023-12-14T02:20:38;27.33;;;17.95;;
36815;SDS011;71982;52.294;6.760;2023-12-14T02:23:11;30.33;;;18.85;;
36815;SDS011;71982;52.294;6.760;2023-12-14T02:25:46;27.23;;;17.88;;
36815;SDS011;71982;52.294;6.760;2023-12-14T02:28:14;25.92;;;17.60;;
36815;SDS011;71982;52.294;6.760;2023-12-14T02:30:41;27.75;;;18.38;;
36815;SDS011;71982;52.294;6.760;2023-12-14T02:33:22;28.23;;;18.10;;
36815;SDS011;71982;52.294;6.760;2023-12-14T02:35:53;28.65;;;17.38;;
36815;SDS011;71982;52.294;6.760;2023-12-14T02:38:27;29.27;;;18.08;;
36815;SDS011;71982;52.294;6.760;2023-12-14T02:40:57;28.85;;;18.55;;
36815;SDS011;71982;52.294;6.760;2023-12-14T02:43:38;24.42;;;16.23;;
36815;SDS011;71982;52.294;6.760;2023-12-14T02:46:06;23.52;;;16.48;;
36815;SDS011;71982;52.294;6.760;2023-12-14T02:48:34;23.58;;;15.82;;
36815;SDS011;71982;52.294;6.760;2023-12-14T02:51:00;27.00;;;16.15;;
36815;SDS011;71982;52.294;6.760;2023-12-14T02:53:33;21.15;;;14.52;;
36815;SDS011;71982;52.294;6.760;2023-12-14T02:56:01;20.83;;;14.57;;
36815;SDS011;71982;52.294;6.760;2023-12-14T02:58:31;22.30;;;15.15;;
36815;SDS011;71982;52.294;6.760;2023-12-14T03:01:13;20.20;;;13.98;;
36815;SDS011;71982;52.294;6.760;2023-12-14T03:03:40;20.95;;;15.73;;
36815;SDS011;71982;52.294;6.760;2023-12-14T03:06:20;22.58;;;14.52;;
36815;SDS011;71982;52.294;6.760;2023-12-14T03:09:03;21.67;;;15.68;;
36815;SDS011;71982;52.294;6.760;2023-12-14T03:11:30;24.45;;;15.23;;
36815;SDS011;71982;52.294;6.760;2023-12-14T03:14:05;23.13;;;15.20;;
36815;SDS011;71982;52.294;6.760;2023-12-14T03:16:40;27.45;;;16.50;;
36815;SDS011;71982;52.294;6.760;2023-12-14T03:19:07;22.77;;;15.60;;
36815;SDS011;71982;52.294;6.760;2023-12-14T03:21:49;25.45;;;16.95;;
36815;SDS011;71982;52.294;6.760;2023-12-14T03:24:29;25.88;;;17.42;;
36815;SDS011;71982;52.294;6.760;2023-12-14T03:26:58;25.40;;;17.73;;
36815;SDS011;71982;52.294;6.760;2023-12-14T03:29:53;26.30;;;17.20;;
36815;SDS011;71982;52.294;6.760;2023-12-14T03:32:21;24.35;;;16.75;;
36815;SDS011;71982;52.294;6.760;2023-12-14T03:35:05;24.17;;;16.17;;
36815;SDS011;71982;52.294;6.760;2023-12-14T03:37:49;25.88;;;16.67;;
36815;SDS011;71982;52.294;6.760;2023-12-14T03:40:17;24.52;;;17.52;;
36815;SDS011;71982;52.294;6.760;2023-12-14T03:42:44;23.77;;;16.73;;
36815;SDS011;71982;52.294;6.760;2023-12-14T03:45:30;24.05;;;16.27;;
36815;SDS011;71982;52.294;6.760;2023-12-14T03:48:00;22.20;;;15.55;;
36815;SDS011;71982;52.294;6.760;2023-12-14T03:50:31;22.05;;;15.30;;
36815;SDS011;71982;52.294;6.760;2023-12-14T03:52:58;22.88;;;16.08;;
36815;SDS011;71982;52.294;6.760;2023-12-14T03:55:38;19.60;;;14.25;;
36815;SDS011;71982;52.294;6.760;2023-12-14T03:58:05;20.65;;;14.82;;
36815;SDS011;71982;52.294;6.760;2023-12-14T04:00:32;18.73;;;13.80;;
36815;SDS011;71982;52.294;6.760;2023-12-14T04:03:01;20.27;;;14.52;;
36815;SDS011;71982;52.294;6.760;2023-12-14T04:05:28;19.05;;;13.45;;
36815;SDS011;71982;52.294;6.760;2023-12-14T04:07:55;19.13;;;13.57;;
36815;SDS011;71982;52.294;6.760;2023-12-14T04:10:48;19.45;;;14.23;;
36815;SDS011;71982;52.294;6.760;2023-12-14T04:13:38;19.33;;;12.93;;
36815;SDS011;71982;52.294;6.760;2023-12-14T04:16:06;19.63;;;13.70;;
36815;SDS011;71982;52.294;6.760;2023-12-14T04:18:41;16.77;;;12.98;;
36815;SDS011;71982;52.294;6.760;2023-12-14T04:21:35;18.00;;;13.05;;
36815;SDS011;71982;52.294;6.760;2023-12-14T04:24:02;17.48;;;12.95;;
36815;SDS011;71982;52.294;6.760;2023-12-14T04:26:34;17.60;;;12.95;;
36815;SDS011;71982;52.294;6.760;2023-12-14T04:29:02;18.48;;;13.00;;
36815;SDS011;71982;52.294;6.760;2023-12-14T04:31:34;16.67;;;11.77;;
36815;SDS011;71982;52.294;6.760;2023-12-14T04:34:01;17.63;;;12.68;;
36815;SDS011;71982;52.294;6.760;2023-12-14T04:36:30;17.48;;;12.90;;
36815;SDS011;71982;52.294;6.760;2023-12-14T04:38:57;17.80;;;13.15;;
36815;SDS011;71982;52.294;6.760;2023-12-14T04:41:27;19.77;;;13.55;;
36815;SDS011;71982;52.294;6.760;2023-12-14T04:44:01;19.30;;;13.30;;
36815;SDS011;71982;52.294;6.760;2023-12-14T04:46:29;22.58;;;13.73;;
36815;SDS011;71982;52.294;6.760;2023-12-14T04:48:59;17.70;;;12.55;;
36815;SDS011;71982;52.294;6.760;2023-12-14T04:51:26;19.45;;;12.95;;
36815;SDS011;71982;52.294;6.760;2023-12-14T04:54:00;18.48;;;13.75;;
36815;SDS011;71982;52.294;6.760;2023-12-14T04:56:29;19.85;;;13.60;;
36815;SDS011;71982;52.294;6.760;2023-12-14T04:58:56;19.63;;;13.73;;
36815;SDS011;71982;52.294;6.760;2023-12-14T05:01:27;19.35;;;13.57;;
36815;SDS011;71982;52.294;6.760;2023-12-14T05:03:54;22.58;;;14.45;;
36815;SDS011;71982;52.294;6.760;2023-12-14T05:06:23;21.50;;;13.35;;
36815;SDS011;71982;52.294;6.760;2023-12-14T05:08:50;19.50;;;12.85;;
36815;SDS011;71982;52.294;6.760;2023-12-14T05:11:16;21.92;;;13.10;;
36815;SDS011;71982;52.294;6.760;2023-12-14T05:13:43;21.20;;;13.93;;
36815;SDS011;71982;52.294;6.760;2023-12-14T05:16:13;20.73;;;13.15;;
36815;SDS011;71982;52.294;6.760;2023-12-14T05:18:41;20.48;;;13.75;;
36815;SDS011;71982;52.294;6.760;2023-12-14T05:21:08;20.15;;;13.13;;
36815;SDS011;71982;52.294;6.760;2023-12-14T05:23:35;19.48;;;13.43;;
36815;SDS011;71982;52.294;6.760;2023-12-14T05:26:02;20.30;;;13.60;;
36815;SDS011;71982;52.294;6.760;2023-12-14T05:28:29;20.77;;;13.55;;
36815;SDS011;71982;52.294;6.760;2023-12-14T05:30:56;19.98;;;13.27;;
36815;SDS011;71982;52.294;6.760;2023-12-14T05:33:23;21.75;;;13.82;;
36815;SDS011;71982;52.294;6.760;2023-12-14T05:35:51;19.90;;;13.18;;
36815;SDS011;71982;52.294;6.760;2023-12-14T05:38:19;19.75;;;12.13;;
36815;SDS011;71982;52.294;6.760;2023-12-14T05:40:46;20.60;;;13.75;;
36815;SDS011;71982;52.294;6.760;2023-12-14T05:43:15;18.02;;;12.52;;
36815;SDS011;71982;52.294;6.760;2023-12-14T05:45:42;22.55;;;12.75;;
36815;SDS011;71982;52.294;6.760;2023-12-14T05:48:09;21.23;;;13.48;;
36815;SDS011;71982;52.294;6.760;2023-12-14T05:50:37;19.58;;;12.75;;
36815;SDS011;71982;52.294;6.760;2023-12-14T05:53:12;22.13;;;11.82;;
36815;SDS011;71982;52.294;6.760;2023-12-14T05:55:41;20.17;;;13.45;;
36815;SDS011;71982;52.294;6.760;2023-12-14T05:58:11;19.50;;;12.55;;
36815;SDS011;71982;52.294;6.760;2023-12-14T06:00:42;18.23;;;12.75;;
36815;SDS011;71982;52.294;6.760;2023-12-14T06:03:09;19.83;;;13.52;;
36815;SDS011;71982;52.294;6.760;2023-12-14T06:05:36;17.17;;;12.05;;
36815;SDS011;71982;52.294;6.760;2023-12-14T06:08:03;17.85;;;12.20;;
36815;SDS011;71982;52.294;6.760;2023-12-14T06:10:36;18.23;;;12.15;;
36815;SDS011;71982;52.294;6.760;2023-12-14T06:13:14;17.88;;;12.20;;
36815;SDS011;71982;52.294;6.760;2023-12-14T06:15:41;18.50;;;12.32;;
36815;SDS011;71982;52.294;6.760;2023-12-14T06:18:09;17.35;;;12.50;;
36815;SDS011;71982;52.294;6.760;2023-12-14T06:20:39;18.52;;;12.38;;
36815;SDS011;71982;52.294;6.760;2023-12-14T06:23:18;20.35;;;13.35;;
36815;SDS011;71982;52.294;6.760;2023-12-14T06:25:52;20.98;;;12.38;;
36815;SDS011;71982;52.294;6.760;2023-12-14T06:28:23;16.20;;;11.43;;
36815;SDS011;71982;52.294;6.760;2023-12-14T06:30:53;16.52;;;11.45;;
36815;SDS011;71982;52.294;6.760;2023-12-14T06:33:28;19.95;;;11.25;;
36815;SDS011;71982;52.294;6.760;2023-12-14T06:36:16;16.50;;;11.68;;
36815;SDS011;71982;52.294;6.760;2023-12-14T06:38:47;19.30;;;12.10;;
36815;SDS011;71982;52.294;6.760;2023-12-14T06:41:22;17.95;;;12.02;;
36815;SDS011;71982;52.294;6.760;2023-12-14T06:43:51;17.60;;;12.05;;
36815;SDS011;71982;52.294;6.760;2023-12-14T06:46:21;16.63;;;12.63;;
36815;SDS011;71982;52.294;6.760;2023-12-14T06:48:48;16.67;;;11.93;;
36815;SDS011;71982;52.294;6.760;2023-12-14T06:51:15;14.98;;;11.32;;
36815;SDS011;71982;52.294;6.760;2023-12-14T06:53:43;17.38;;;12.10;;
36815;SDS011;71982;52.294;6.760;2023-12-14T06:56:11;17.38;;;11.32;;
36815;SDS011;71982;52.294;6.760;2023-12-14T06:58:40;14.77;;;11.20;;
36815;SDS011;71982;52.294;6.760;2023-12-14T07:01:11;17.10;;;11.95;;
36815;SDS011;71982;52.294;6.760;2023-12-14T07:06:18;14.63;;;10.45;;
36815;SDS011;71982;52.294;6.760;2023-12-14T07:08:46;16.75;;;11.77;;
36815;SDS011;71982;52.294;6.760;2023-12-14T07:11:13;15.98;;;10.63;;
36815;SDS011;71982;52.294;6.760;2023-12-14T07:13:45;14.73;;;10.68;;
36815;SDS011;71982;52.294;6.760;2023-12-14T07:16:12;18.98;;;12.32;;
36815;SDS011;71982;52.294;6.760;2023-12-14T07:18:41;17.70;;;12.05;;
36815;SDS011;71982;52.294;6.760;2023-12-14T07:21:09;19.42;;;14.05;;
36815;SDS011;71982;52.294;6.760;2023-12-14T07:23:36;22.50;;;12.93;;
36815;SDS011;71982;52.294;6.760;2023-12-14T07:26:30;18.88;;;13.95;;
36815;SDS011;71982;52.294;6.760;2023-12-14T07:29:01;21.35;;;14.43;;
36815;SDS011;71982;52.294;6.760;2023-12-14T07:31:31;18.73;;;14.48;;
36815;SDS011;71982;52.294;6.760;2023-12-14T07:34:01;21.88;;;15.63;;
36815;SDS011;71982;52.294;6.760;2023-12-14T07:36:35;20.50;;;15.30;;
36815;SDS011;71982;52.294;6.760;2023-12-14T07:39:02;18.67;;;14.45;;
36815;SDS011;71982;52.294;6.760;2023-12-14T07:41:31;19.40;;;14.38;;
36815;SDS011;71982;52.294;6.760;2023-12-14T07:44:01;18.58;;;13.77;;
36815;SDS011;71982;52.294;6.760;2023-12-14T07:46:31;18.42;;;13.07;;
36815;SDS011;71982;52.294;6.760;2023-12-14T07:49:04;17.98;;;13.02;;
36815;SDS011;71982;52.294;6.760;2023-12-14T07:51:38;17.85;;;13.23;;
36815;SDS011;71982;52.294;6.760;2023-12-14T07:54:15;16.27;;;11.77;;
36815;SDS011;71982;52.294;6.760;2023-12-14T07:56:57;16.13;;;12.77;;
36815;SDS011;71982;52.294;6.760;2023-12-14T07:59:29;17.50;;;12.95;;
36815;SDS011;71982;52.294;6.760;2023-12-14T08:02:02;19.08;;;11.98;;
36815;SDS011;71982;52.294;6.760;2023-12-14T08:04:36;16.20;;;12.05;;
36815;SDS011;71982;52.294;6.760;2023-12-14T08:09:33;16.40;;;12.35;;
36815;SDS011;71982;52.294;6.760;2023-12-14T08:12:10;16.58;;;12.20;;
36815;SDS011;71982;52.294;6.760;2023-12-14T08:15:00;15.48;;;10.93;;
36815;SDS011;71982;52.294;6.760;2023-12-14T08:17:40;16.55;;;12.32;;
36815;SDS011;71982;52.294;6.760;2023-12-14T08:20:08;16.80;;;11.48;;
36815;SDS011;71982;52.294;6.760;2023-12-14T08:22:37;15.32;;;10.95;;
36815;SDS011;71982;52.294;6.760;2023-12-14T08:25:18;18.08;;;11.73;;
36815;SDS011;71982;52.294;6.760;2023-12-14T08:27:45;14.35;;;10.95;;
36815;SDS011;71982;52.294;6.760;2023-12-14T08:30:14;15.75;;;11.00;;
36815;SDS011;71982;52.294;6.760;2023-12-14T08:32:49;15.60;;;11.30;;
36815;SDS011;71982;52.294;6.760;2023-12-14T08:35:17;16.70;;;10.10;;
36815;SDS011;71982;52.294;6.760;2023-12-14T08:37:50;14.73;;;10.45;;
36815;SDS011;71982;52.294;6.760;2023-12-14T08:40:17;18.13;;;11.38;;
36815;SDS011;71982;52.294;6.760;2023-12-14T08:42:44;13.75;;;10.32;;
36815;SDS011;71982;52.294;6.760;2023-12-14T08:45:15;14.05;;;10.30;;
36815;SDS011;71982;52.294;6.760;2023-12-14T08:47:42;16.88;;;10.30;;
36815;SDS011;71982;52.294;6.760;2023-12-14T08:50:09;14.32;;;11.07;;
36815;SDS011;71982;52.294;6.760;2023-12-14T08:52:47;15.90;;;11.07;;
36815;SDS011;71982;52.294;6.760;2023-12-14T08:55:14;16.27;;;12.32;;
36815;SDS011;71982;52.294;6.760;2023-12-14T08:57:43;15.05;;;11.10;;
36815;SDS011;71982;52.294;6.760;2023-12-14T09:00:10;18.23;;;10.43;;
36815;SDS011;71982;52.294;6.760;2023-12-14T09:02:39;14.40;;;11.05;;
36815;SDS011;71982;52.294;6.760;2023-12-14T09:05:07;13.80;;;9.77;;
36815;SDS011;71982;52.294;6.760;2023-12-14T09:07:36;15.63;;;10.80;;
36815;SDS011;71982;52.294;6.760;2023-12-14T09:10:03;16.15;;;11.80;;
36815;SDS011;71982;52.294;6.760;2023-12-14T09:12:31;14.73;;;10.95;;
36815;SDS011;71982;52.294;6.760;2023-12-14T09:15:02;16.33;;;11.20;;
36815;SDS011;71982;52.294;6.760;2023-12-14T09:17:37;14.73;;;11.30;;
36815;SDS011;71982;52.294;6.760;2023-12-14T09:20:15;17.42;;;12.43;;
36815;SDS011;71982;52.294;6.760;2023-12-14T09:22:42;16.50;;;12.48;;
36815;SDS011;71982;52.294;6.760;2023-12-14T09:25:10;14.45;;;10.95;;
36815;SDS011;71982;52.294;6.760;2023-12-14T09:27:41;19.20;;;12.23;;
36815;SDS011;71982;52.294;6.760;2023-12-14T09:30:08;18.58;;;12.52;;
36815;SDS011;71982;52.294;6.760;2023-12-14T09:32:45;16.17;;;10.93;;
36815;SDS011;71982;52.294;6.760;2023-12-14T09:35:19;17.00;;;11.77;;
36815;SDS011;71982;52.294;6.760;2023-12-14T09:38:03;15.85;;;10.77;;
36815;SDS011;71982;52.294;6.760;2023-12-14T09:40:30;15.65;;;10.70;;
36815;SDS011;71982;52.294;6.760;2023-12-14T09:43:00;14.25;;;11.07;;
36815;SDS011;71982;52.294;6.760;2023-12-14T09:45:29;17.33;;;10.95;;
36815;SDS011;71982;52.294;6.760;2023-12-14T09:47:59;13.77;;;10.50;;
36815;SDS011;71982;52.294;6.760;2023-12-14T09:50:31;14.70;;;10.43;;
36815;SDS011;71982;52.294;6.760;2023-12-14T09:53:00;13.70;;;9.48;;
36815;SDS011;71982;52.294;6.760;2023-12-14T09:55:26;14.70;;;10.70;;
36815;SDS011;71982;52.294;6.760;2023-12-14T09:57:56;18.63;;;9.93;;
36815;SDS011;71982;52.294;6.760;2023-12-14T10:00:34;14.40;;;10.57;;
36815;SDS011;71982;52.294;6.760;2023-12-14T10:08:32;14.65;;;10.07;;
36815;SDS011;71982;52.294;6.760;2023-12-14T10:10:59;12.90;;;9.63;;
36815;SDS011;71982;52.294;6.760;2023-12-14T10:13:35;13.18;;;10.00;;
36815;SDS011;71982;52.294;6.760;2023-12-14T10:16:03;13.23;;;9.70;;
36815;SDS011;71982;52.294;6.760;2023-12-14T10:18:35;12.25;;;9.63;;
36815;SDS011;71982;52.294;6.760;2023-12-14T10:21:07;15.85;;;9.85;;
36815;SDS011;71982;52.294;6.760;2023-12-14T10:23:35;15.48;;;10.63;;
36815;SDS011;71982;52.294;6.760;2023-12-14T10:26:01;13.70;;;9.13;;
36815;SDS011;71982;52.294;6.760;2023-12-14T10:28:30;14.30;;;8.95;;
36815;SDS011;71982;52.294;6.760;2023-12-14T10:30:57;13.65;;;9.63;;
36815;SDS011;71982;52.294;6.760;2023-12-14T10:33:32;12.95;;;8.60;;
36815;SDS011;71982;52.294;6.760;2023-12-14T10:35:58;13.70;;;8.80;;
36815;SDS011;71982;52.294;6.760;2023-12-14T10:38:28;12.98;;;9.07;;
36815;SDS011;71982;52.294;6.760;2023-12-14T10:41:00;13.35;;;9.73;;
36815;SDS011;71982;52.294;6.760;2023-12-14T10:43:27;12.07;;;9.05;;
36815;SDS011;71982;52.294;6.760;2023-12-14T10:45:58;12.07;;;8.25;;
36815;SDS011;71982;52.294;6.760;2023-12-14T10:48:30;11.52;;;7.75;;
36815;SDS011;71982;52.294;6.760;2023-12-14T10:50:58;9.93;;;7.55;;
36815;SDS011;71982;52.294;6.760;2023-12-14T10:53:29;11.45;;;7.97;;
36815;SDS011;71982;52.294;6.760;2023-12-14T10:55:56;13.10;;;7.93;;
36815;SDS011;71982;52.294;6.760;2023-12-14T10:58:39;12.18;;;7.72;;
36815;SDS011;71982;52.294;6.760;2023-12-14T11:01:13;10.48;;;7.45;;
36815;SDS011;71982;52.294;6.760;2023-12-14T11:03:40;16.33;;;7.70;;
36815;SDS011;71982;52.294;6.760;2023-12-14T11:06:15;11.52;;;7.88;;
36815;SDS011;71982;52.294;6.760;2023-12-14T11:08:48;11.13;;;8.02;;
36815;SDS011;71982;52.294;6.760;2023-12-14T11:11:17;12.43;;;8.68;;
36815;SDS011;71982;52.294;6.760;2023-12-14T11:13:46;12.85;;;9.77;;
36815;SDS011;71982;52.294;6.760;2023-12-14T11:16:17;12.45;;;8.68;;
36815;SDS011;71982;52.294;6.760;2023-12-14T11:18:46;11.25;;;8.38;;
36815;SDS011;71982;52.294;6.760;2023-12-14T11:21:17;13.68;;;8.98;;
36815;SDS011;71982;52.294;6.760;2023-12-14T11:23:51;13.27;;;8.95;;
36815;SDS011;71982;52.294;6.760;2023-12-14T11:26:20;12.60;;;8.80;;
36815;SDS011;71982;52.294;6.760;2023-12-14T11:28:48;13.80;;;8.68;;
36815;SDS011;71982;52.294;6.760;2023-12-14T11:31:15;11.23;;;7.82;;
36815;SDS011;71982;52.294;6.760;2023-12-14T11:33:42;11.52;;;8.45;;
36815;SDS011;71982;52.294;6.760;2023-12-14T11:36:13;14.45;;;9.00;;
36815;SDS011;71982;52.294;6.760;2023-12-14T11:38:40;11.75;;;8.50;;
36815;SDS011;71982;52.294;6.760;2023-12-14T11:41:10;12.05;;;8.60;;
36815;SDS011;71982;52.294;6.760;2023-12-14T11:43:40;12.57;;;8.57;;
36815;SDS011;71982;52.294;6.760;2023-12-14T11:46:08;13.95;;;9.18;;
36815;SDS011;71982;52.294;6.760;2023-12-14T11:48:35;14.93;;;10.05;;
36815;SDS011;71982;52.294;6.760;2023-12-14T11:51:04;15.45;;;10.38;;
36815;SDS011;71982;52.294;6.760;2023-12-14T11:53:45;16.73;;;10.17;;
36815;SDS011;71982;52.294;6.760;2023-12-14T11:56:14;14.30;;;10.32;;
36815;SDS011;71982;52.294;6.760;2023-12-14T11:58:43;13.32;;;9.40;;
36815;SDS011;71982;52.294;6.760;2023-12-14T12:01:12;13.93;;;9.02;;
36815;SDS011;71982;52.294;6.760;2023-12-14T12:03:40;14.60;;;9.65;;
36815;SDS011;71982;52.294;6.760;2023-12-14T12:06:08;14.40;;;9.75;;
36815;SDS011;71982;52.294;6.760;2023-12-14T12:08:40;16.08;;;10.05;;
36815;SDS011;71982;52.294;6.760;2023-12-14T12:11:07;15.82;;;10.18;;
36815;SDS011;71982;52.294;6.760;2023-12-14T12:13:36;22.73;;;11.50;;
36815;SDS011;71982;52.294;6.760;2023-12-14T12:16:08;14.55;;;10.05;;
36815;SDS011;71982;52.294;6.760;2023-12-14T12:18:37;16.05;;;11.18;;
36815;SDS011;71982;52.294;6.760;2023-12-14T12:21:11;15.18;;;10.02;;
36815;SDS011;71982;52.294;6.760;2023-12-14T12:23:39;15.13;;;10.48;;
36815;SDS011;71982;52.294;6.760;2023-12-14T12:26:08;18.05;;;9.82;;
36815;SDS011;71982;52.294;6.760;2023-12-14T12:28:38;15.25;;;10.82;;
36815;SDS011;71982;52.294;6.760;2023-12-14T12:31:16;29.67;;;17.00;;
36815;SDS011;71982;52.294;6.760;2023-12-14T12:33:44;18.23;;;10.82;;
36815;SDS011;71982;52.294;6.760;2023-12-14T12:36:11;13.90;;;10.07;;
36815;SDS011;71982;52.294;6.760;2023-12-14T12:38:38;14.60;;;10.18;;
36815;SDS011;71982;52.294;6.760;2023-12-14T12:41:05;14.73;;;10.75;;
36815;SDS011;71982;52.294;6.760;2023-12-14T15:24:32;20.15;;;11.90;;
36815;SDS011;71982;52.294;6.760;2023-12-14T15:26:58;19.65;;;12.45;;
36815;SDS011;71982;52.294;6.760;2023-12-14T15:29:25;21.63;;;13.57;;
36815;SDS011;71982;52.294;6.760;2023-12-14T15:31:52;23.52;;;13.15;;
36815;SDS011;71982;52.294;6.760;2023-12-14T15:34:19;25.75;;;14.20;;
36815;SDS011;71982;52.294;6.760;2023-12-14T15:36:45;24.35;;;16.33;;
36815;SDS011;71982;52.294;6.760;2023-12-14T15:39:12;23.77;;;14.65;;
36815;SDS011;71982;52.294;6.760;2023-12-14T15:41:40;22.58;;;14.35;;
36815;SDS011;71982;52.294;6.760;2023-12-14T15:44:07;26.10;;;17.38;;
36815;SDS011;71982;52.294;6.760;2023-12-14T15:46:34;23.75;;;14.98;;
36815;SDS011;71982;52.294;6.760;2023-12-14T15:49:01;21.48;;;13.90;;
36815;SDS011;71982;52.294;6.760;2023-12-14T15:51:28;21.48;;;13.93;;
36815;SDS011;71982;52.294;6.760;2023-12-14T15:53:55;24.20;;;14.27;;
36815;SDS011;71982;52.294;6.760;2023-12-14T15:56:24;24.55;;;13.80;;
36815;SDS011;71982;52.294;6.760;2023-12-14T15:58:55;23.40;;;14.93;;
36815;SDS011;71982;52.294;6.760;2023-12-14T16:01:22;22.23;;;12.63;;
36815;SDS011;71982;52.294;6.760;2023-12-14T16:03:48;26.00;;;14.07;;
36815;SDS011;71982;52.294;6.760;2023-12-14T16:06:15;27.73;;;13.55;;
36815;SDS011;71982;52.294;6.760;2023-12-14T16:08:43;21.38;;;13.05;;
36815;SDS011;71982;52.294;6.760;2023-12-14T16:11:09;24.80;;;14.25;;
36815;SDS011;71982;52.294;6.760;2023-12-14T16:13:38;23.73;;;13.07;;
36815;SDS011;71982;52.294;6.760;2023-12-14T16:16:07;24.90;;;13.90;;
36815;SDS011;71982;52.294;6.760;2023-12-14T16:18:34;31.67;;;14.85;;
36815;SDS011;71982;52.294;6.760;2023-12-14T16:21:01;23.63;;;13.98;;
36815;SDS011;71982;52.294;6.760;2023-12-14T16:23:28;27.42;;;13.95;;
36815;SDS011;71982;52.294;6.760;2023-12-14T16:25:56;27.27;;;14.40;;
36815;SDS011;71982;52.294;6.760;2023-12-14T16:28:23;24.75;;;14.15;;
36815;SDS011;71982;52.294;6.760;2023-12-14T16:30:50;23.05;;;13.88;;
36815;SDS011;71982;52.294;6.760;2023-12-14T16:33:18;30.17;;;16.08;;
36815;SDS011;71982;52.294;6.760;2023-12-14T16:35:45;28.00;;;15.13;;
36815;SDS011;71982;52.294;6.760;2023-12-14T16:38:12;31.77;;;16.83;;
36815;SDS011;71982;52.294;6.760;2023-12-14T16:40:39;30.80;;;17.08;;
36815;SDS011;71982;52.294;6.760;2023-12-14T16:43:05;33.50;;;17.02;;
36815;SDS011;71982;52.294;6.760;2023-12-14T16:45:32;29.95;;;16.25;;
36815;SDS011;71982;52.294;6.760;2023-12-14T16:47:59;26.23;;;15.55;;
36815;SDS011;71982;52.294;6.760;2023-12-14T16:50:28;30.70;;;16.48;;
36815;SDS011;71982;52.294;6.760;2023-12-14T16:52:55;34.28;;;19.02;;
36815;SDS011;71982;52.294;6.760;2023-12-14T16:55:21;34.90;;;21.17;;
36815;SDS011;71982;52.294;6.760;2023-12-14T16:57:49;37.67;;;22.17;;
36815;SDS011;71982;52.294;6.760;2023-12-14T17:00:15;37.63;;;21.65;;
36815;SDS011;71982;52.294;6.760;2023-12-14T17:02:42;34.00;;;19.10;;
36815;SDS011;71982;52.294;6.760;2023-12-14T17:05:09;31.60;;;18.55;;
36815;SDS011;71982;52.294;6.760;2023-12-14T17:07:37;69.55;;;42.42;;
36815;SDS011;71982;52.294;6.760;2023-12-14T17:10:05;82.80;;;47.78;;
36815;SDS011;71982;52.294;6.760;2023-12-14T17:12:32;86.75;;;48.47;;
36815;SDS011;71982;52.294;6.760;2023-12-14T17:14:59;40.75;;;22.10;;
36815;SDS011;71982;52.294;6.760;2023-12-14T17:17:25;39.38;;;22.33;;
36815;SDS011;71982;52.294;6.760;2023-12-14T17:22:24;27.30;;;15.70;;
36815;SDS011;71982;52.294;6.760;2023-12-14T17:24:54;27.73;;;16.67;;
36815;SDS011;71982;52.294;6.760;2023-12-14T17:27:24;30.98;;;17.80;;
36815;SDS011;71982;52.294;6.760;2023-12-14T17:29:51;32.63;;;19.83;;
36815;SDS011;71982;52.294;6.760;2023-12-14T17:32:18;32.17;;;16.88;;
36815;SDS011;71982;52.294;6.760;2023-12-14T17:34:44;31.25;;;17.90;;
36815;SDS011;71982;52.294;6.760;2023-12-14T17:37:11;29.63;;;16.83;;
36815;SDS011;71982;52.294;6.760;2023-12-14T17:39:38;29.38;;;16.50;;
36815;SDS011;71982;52.294;6.760;2023-12-14T17:42:07;30.05;;;17.02;;